sensor_id;sensor_type;location;lat;lon;timestamp;temperature;humidity
17178;DHT22;8704;52.006;4.374;2022-11-23T00:00:45;8.10;99.90
17178;DHT22;8704;52.006;4.374;2022-11-23T00:03:14;8.20;99.90
17178;DHT22;8704;52.006;4.374;2022-11-23T00:05:42;8.10;99.90
17178;DHT22;8704;52.006;4.374;2022-11-23T00:08:11;8.10;99.90
17178;DHT22;8704;52.006;4.374;2022-11-23T00:10:39;8.10;99.90
17178;DHT22;8704;52.006;4.374;2022-11-23T00:13:07;8.10;99.90
17178;DHT22;8704;52.006;4.374;2022-11-23T00:15:35;8.10;99.90
17178;DHT22;8704;52.006;4.374;2022-11-23T00:18:03;8.10;99.90
17178;DHT22;8704;52.006;4.374;2022-11-23T00:20:31;8.50;99.90
17178;DHT22;8704;52.006;4.374;2022-11-23T00:22:59;8.10;99.90
17178;DHT22;8704;52.006;4.374;2022-11-23T00:25:28;8.10;99.90
17178;DHT22;8704;52.006;4.374;2022-11-23T00:27:56;8.10;99.90
17178;DHT22;8704;52.006;4.374;2022-11-23T00:30:24;8.10;99.90
17178;DHT22;8704;52.006;4.374;2022-11-23T00:32:54;8.50;99.90
17178;DHT22;8704;52.006;4.374;2022-11-23T00:35:22;8.10;99.90
17178;DHT22;8704;52.006;4.374;2022-11-23T00:37:50;8.20;99.90
17178;DHT22;8704;52.006;4.374;2022-11-23T00:40:18;8.20;99.90
17178;DHT22;8704;52.006;4.374;2022-11-23T00:42:47;8.30;99.90
17178;DHT22;8704;52.006;4.374;2022-11-23T00:45:15;8.20;99.90
17178;DHT22;8704;52.006;4.374;2022-11-23T00:47:43;8.20;99.90
17178;DHT22;8704;52.006;4.374;2022-11-23T00:50:11;8.20;99.90
17178;DHT22;8704;52.006;4.374;2022-11-23T00:52:39;8.20;99.90
17178;DHT22;8704;52.006;4.374;2022-11-23T00:55:07;8.20;99.90
17178;DHT22;8704;52.006;4.374;2022-11-23T00:57:35;8.20;99.90
17178;DHT22;8704;52.006;4.374;2022-11-23T01:00:06;8.20;99.90
17178;DHT22;8704;52.006;4.374;2022-11-23T01:02:35;8.20;99.90
17178;DHT22;8704;52.006;4.374;2022-11-23T01:05:03;8.20;99.90
17178;DHT22;8704;52.006;4.374;2022-11-23T01:07:31;8.20;99.90
17178;DHT22;8704;52.006;4.374;2022-11-23T01:09:59;8.20;99.90
17178;DHT22;8704;52.006;4.374;2022-11-23T01:12:27;8.20;99.90
17178;DHT22;8704;52.006;4.374;2022-11-23T01:14:56;8.20;99.90
17178;DHT22;8704;52.006;4.374;2022-11-23T01:17:25;8.20;99.90
17178;DHT22;8704;52.006;4.374;2022-11-23T01:19:53;9.30;99.90
17178;DHT22;8704;52.006;4.374;2022-11-23T01:22:21;8.20;99.90
17178;DHT22;8704;52.006;4.374;2022-11-23T01:24:49;8.20;99.90
17178;DHT22;8704;52.006;4.374;2022-11-23T01:27:17;8.40;99.90
17178;DHT22;8704;52.006;4.374;2022-11-23T01:29:45;8.60;99.90
17178;DHT22;8704;52.006;4.374;2022-11-23T01:32:13;8.30;99.90
17178;DHT22;8704;52.006;4.374;2022-11-23T01:34:42;8.20;99.90
17178;DHT22;8704;52.006;4.374;2022-11-23T01:37:10;8.20;99.90
17178;DHT22;8704;52.006;4.374;2022-11-23T01:39:38;8.20;99.90
17178;DHT22;8704;52.006;4.374;2022-11-23T01:42:06;8.20;99.90
17178;DHT22;8704;52.006;4.374;2022-11-23T01:44:36;8.20;99.90
17178;DHT22;8704;52.006;4.374;2022-11-23T01:47:06;8.20;99.90
17178;DHT22;8704;52.006;4.374;2022-11-23T01:49:36;8.40;99.90
17178;DHT22;8704;52.006;4.374;2022-11-23T01:52:10;8.20;99.90
17178;DHT22;8704;52.006;4.374;2022-11-23T01:54:42;8.70;99.90
17178;DHT22;8704;52.006;4.374;2022-11-23T01:57:15;8.20;99.90
17178;DHT22;8704;52.006;4.374;2022-11-23T01:59:45;8.20;99.90
17178;DHT22;8704;52.006;4.374;2022-11-23T02:02:13;8.20;99.90
17178;DHT22;8704;52.006;4.374;2022-11-23T02:04:45;8.20;99.90
17178;DHT22;8704;52.006;4.374;2022-11-23T02:07:16;8.20;99.90
17178;DHT22;8704;52.006;4.374;2022-11-23T02:09:45;8.20;99.90
17178;DHT22;8704;52.006;4.374;2022-11-23T02:12:14;8.20;99.90
17178;DHT22;8704;52.006;4.374;2022-11-23T02:14:43;8.30;99.90
17178;DHT22;8704;52.006;4.374;2022-11-23T02:17:11;8.20;99.90
17178;DHT22;8704;52.006;4.374;2022-11-23T02:19:49;8.20;99.90
17178;DHT22;8704;52.006;4.374;2022-11-23T02:22:27;8.20;99.90
17178;DHT22;8704;52.006;4.374;2022-11-23T02:24:59;8.10;99.90
17178;DHT22;8704;52.006;4.374;2022-11-23T02:27:29;8.30;99.90
17178;DHT22;8704;52.006;4.374;2022-11-23T02:29:58;8.00;99.90
17178;DHT22;8704;52.006;4.374;2022-11-23T02:32:28;8.00;99.90
17178;DHT22;8704;52.006;4.374;2022-11-23T02:34:56;8.30;99.90
17178;DHT22;8704;52.006;4.374;2022-11-23T02:37:24;8.00;99.90
17178;DHT22;8704;52.006;4.374;2022-11-23T02:39:53;8.10;99.90
17178;DHT22;8704;52.006;4.374;2022-11-23T02:42:23;8.10;99.90
17178;DHT22;8704;52.006;4.374;2022-11-23T02:45:16;8.10;99.90
17178;DHT22;8704;52.006;4.374;2022-11-23T02:47:46;8.10;99.90
17178;DHT22;8704;52.006;4.374;2022-11-23T02:50:14;8.10;99.90
17178;DHT22;8704;52.006;4.374;2022-11-23T02:52:42;8.10;99.90
17178;DHT22;8704;52.006;4.374;2022-11-23T02:55:10;8.10;99.90
17178;DHT22;8704;52.006;4.374;2022-11-23T02:57:38;8.10;99.90
17178;DHT22;8704;52.006;4.374;2022-11-23T03:00:07;8.10;99.90
17178;DHT22;8704;52.006;4.374;2022-11-23T03:02:37;8.10;99.90
17178;DHT22;8704;52.006;4.374;2022-11-23T03:05:06;8.10;99.90
17178;DHT22;8704;52.006;4.374;2022-11-23T03:07:34;8.10;99.90
17178;DHT22;8704;52.006;4.374;2022-11-23T03:10:03;8.10;99.90
17178;DHT22;8704;52.006;4.374;2022-11-23T03:12:31;8.10;99.90
17178;DHT22;8704;52.006;4.374;2022-11-23T03:14:59;8.10;99.90
17178;DHT22;8704;52.006;4.374;2022-11-23T03:17:27;8.20;99.90
17178;DHT22;8704;52.006;4.374;2022-11-23T03:19:57;8.20;99.90
17178;DHT22;8704;52.006;4.374;2022-11-23T03:22:25;8.20;99.90
17178;DHT22;8704;52.006;4.374;2022-11-23T03:24:53;8.30;99.90
17178;DHT22;8704;52.006;4.374;2022-11-23T03:27:22;8.20;99.90
17178;DHT22;8704;52.006;4.374;2022-11-23T03:29:50;8.20;99.90
17178;DHT22;8704;52.006;4.374;2022-11-23T03:32:18;8.20;99.90
17178;DHT22;8704;52.006;4.374;2022-11-23T03:34:46;8.20;99.90
17178;DHT22;8704;52.006;4.374;2022-11-23T03:37:15;8.20;99.90
17178;DHT22;8704;52.006;4.374;2022-11-23T03:39:43;8.20;99.90
17178;DHT22;8704;52.006;4.374;2022-11-23T03:42:13;8.20;99.90
17178;DHT22;8704;52.006;4.374;2022-11-23T03:44:41;8.20;99.90
17178;DHT22;8704;52.006;4.374;2022-11-23T03:47:09;8.30;99.90
17178;DHT22;8704;52.006;4.374;2022-11-23T03:49:37;8.30;99.90
17178;DHT22;8704;52.006;4.374;2022-11-23T03:52:05;8.80;99.90
17178;DHT22;8704;52.006;4.374;2022-11-23T03:54:34;8.30;99.90
17178;DHT22;8704;52.006;4.374;2022-11-23T03:57:02;9.70;99.90
17178;DHT22;8704;52.006;4.374;2022-11-23T03:59:30;9.60;99.90
17178;DHT22;8704;52.006;4.374;2022-11-23T04:01:59;8.30;99.90
17178;DHT22;8704;52.006;4.374;2022-11-23T04:04:27;8.60;99.90
17178;DHT22;8704;52.006;4.374;2022-11-23T04:06:55;8.80;99.90
17178;DHT22;8704;52.006;4.374;2022-11-23T04:09:23;8.30;99.90
17178;DHT22;8704;52.006;4.374;2022-11-23T04:11:53;8.30;99.90
17178;DHT22;8704;52.006;4.374;2022-11-23T04:14:21;8.40;99.90
17178;DHT22;8704;52.006;4.374;2022-11-23T04:16:49;8.40;99.90
17178;DHT22;8704;52.006;4.374;2022-11-23T04:19:17;8.40;99.90
17178;DHT22;8704;52.006;4.374;2022-11-23T04:21:45;8.40;99.90
17178;DHT22;8704;52.006;4.374;2022-11-23T04:24:13;8.40;99.90
17178;DHT22;8704;52.006;4.374;2022-11-23T04:26:41;8.40;99.90
17178;DHT22;8704;52.006;4.374;2022-11-23T04:29:10;8.40;99.90
17178;DHT22;8704;52.006;4.374;2022-11-23T04:31:38;8.40;99.90
17178;DHT22;8704;52.006;4.374;2022-11-23T04:34:06;8.40;99.90
17178;DHT22;8704;52.006;4.374;2022-11-23T04:36:34;8.40;99.90
17178;DHT22;8704;52.006;4.374;2022-11-23T04:39:02;8.50;99.90
17178;DHT22;8704;52.006;4.374;2022-11-23T04:41:30;8.40;99.90
17178;DHT22;8704;52.006;4.374;2022-11-23T04:43:58;8.40;99.90
17178;DHT22;8704;52.006;4.374;2022-11-23T04:46:27;8.40;99.90
17178;DHT22;8704;52.006;4.374;2022-11-23T04:48:55;8.40;99.90
17178;DHT22;8704;52.006;4.374;2022-11-23T04:51:23;8.40;99.90
17178;DHT22;8704;52.006;4.374;2022-11-23T04:53:51;8.40;99.90
17178;DHT22;8704;52.006;4.374;2022-11-23T04:56:19;8.40;99.90
17178;DHT22;8704;52.006;4.374;2022-11-23T04:58:47;8.40;99.90
17178;DHT22;8704;52.006;4.374;2022-11-23T05:01:15;8.40;99.90
17178;DHT22;8704;52.006;4.374;2022-11-23T05:03:44;8.40;99.90
17178;DHT22;8704;52.006;4.374;2022-11-23T05:06:13;8.40;99.90
17178;DHT22;8704;52.006;4.374;2022-11-23T05:08:41;8.40;99.90
17178;DHT22;8704;52.006;4.374;2022-11-23T05:11:09;8.40;99.90
17178;DHT22;8704;52.006;4.374;2022-11-23T05:13:37;8.40;99.90
17178;DHT22;8704;52.006;4.374;2022-11-23T05:16:05;8.40;99.90
17178;DHT22;8704;52.006;4.374;2022-11-23T05:18:33;8.40;99.90
17178;DHT22;8704;52.006;4.374;2022-11-23T05:21:02;8.40;99.90
17178;DHT22;8704;52.006;4.374;2022-11-23T05:23:30;8.40;99.90
17178;DHT22;8704;52.006;4.374;2022-11-23T05:25:58;8.30;99.90
17178;DHT22;8704;52.006;4.374;2022-11-23T05:28:26;8.30;99.90
17178;DHT22;8704;52.006;4.374;2022-11-23T05:31:10;8.30;99.90
17178;DHT22;8704;52.006;4.374;2022-11-23T05:33:38;8.30;99.90
17178;DHT22;8704;52.006;4.374;2022-11-23T05:36:08;8.30;99.90
17178;DHT22;8704;52.006;4.374;2022-11-23T05:38:39;8.20;99.90
17178;DHT22;8704;52.006;4.374;2022-11-23T05:41:07;8.20;99.90
17178;DHT22;8704;52.006;4.374;2022-11-23T05:43:35;8.20;99.90
17178;DHT22;8704;52.006;4.374;2022-11-23T05:46:03;8.20;99.90
17178;DHT22;8704;52.006;4.374;2022-11-23T05:48:31;8.20;99.90
17178;DHT22;8704;52.006;4.374;2022-11-23T05:50:59;8.30;99.90
17178;DHT22;8704;52.006;4.374;2022-11-23T05:53:32;8.10;99.90
17178;DHT22;8704;52.006;4.374;2022-11-23T05:56:00;9.20;99.90
17178;DHT22;8704;52.006;4.374;2022-11-23T05:58:29;8.20;99.90
17178;DHT22;8704;52.006;4.374;2022-11-23T06:00:57;8.10;99.90
17178;DHT22;8704;52.006;4.374;2022-11-23T06:03:26;8.10;99.90
17178;DHT22;8704;52.006;4.374;2022-11-23T06:05:54;8.20;99.90
17178;DHT22;8704;52.006;4.374;2022-11-23T06:08:22;8.10;99.90
17178;DHT22;8704;52.006;4.374;2022-11-23T06:10:51;8.10;99.90
17178;DHT22;8704;52.006;4.374;2022-11-23T06:13:19;8.10;99.90
17178;DHT22;8704;52.006;4.374;2022-11-23T06:15:47;8.10;99.90
17178;DHT22;8704;52.006;4.374;2022-11-23T06:18:15;8.00;99.90
17178;DHT22;8704;52.006;4.374;2022-11-23T06:20:43;8.00;99.90
17178;DHT22;8704;52.006;4.374;2022-11-23T06:23:11;8.00;99.90
17178;DHT22;8704;52.006;4.374;2022-11-23T06:25:39;7.90;99.90
17178;DHT22;8704;52.006;4.374;2022-11-23T06:28:08;7.90;99.90
17178;DHT22;8704;52.006;4.374;2022-11-23T06:30:36;7.80;99.90
17178;DHT22;8704;52.006;4.374;2022-11-23T06:33:04;7.80;99.90
17178;DHT22;8704;52.006;4.374;2022-11-23T06:35:32;7.70;99.90
17178;DHT22;8704;52.006;4.374;2022-11-23T06:38:00;7.70;99.90
17178;DHT22;8704;52.006;4.374;2022-11-23T06:40:28;7.60;99.90
17178;DHT22;8704;52.006;4.374;2022-11-23T06:42:57;7.80;99.90
17178;DHT22;8704;52.006;4.374;2022-11-23T06:45:27;7.50;99.90
17178;DHT22;8704;52.006;4.374;2022-11-23T06:47:55;7.80;99.90
17178;DHT22;8704;52.006;4.374;2022-11-23T06:50:23;7.50;99.90
17178;DHT22;8704;52.006;4.374;2022-11-23T06:52:57;7.40;99.90
17178;DHT22;8704;52.006;4.374;2022-11-23T06:55:26;7.40;99.90
17178;DHT22;8704;52.006;4.374;2022-11-23T06:57:55;7.40;99.90
17178;DHT22;8704;52.006;4.374;2022-11-23T07:00:24;7.40;99.90
17178;DHT22;8704;52.006;4.374;2022-11-23T07:02:54;7.40;99.90
17178;DHT22;8704;52.006;4.374;2022-11-23T07:05:22;7.40;99.90
17178;DHT22;8704;52.006;4.374;2022-11-23T07:07:51;7.40;99.90
17178;DHT22;8704;52.006;4.374;2022-11-23T07:10:19;7.40;99.90
17178;DHT22;8704;52.006;4.374;2022-11-23T07:12:47;8.30;99.90
17178;DHT22;8704;52.006;4.374;2022-11-23T07:15:15;7.40;99.90
17178;DHT22;8704;52.006;4.374;2022-11-23T07:17:43;7.50;99.90
17178;DHT22;8704;52.006;4.374;2022-11-23T07:20:13;7.50;99.90
17178;DHT22;8704;52.006;4.374;2022-11-23T07:22:41;7.90;99.90
17178;DHT22;8704;52.006;4.374;2022-11-23T07:25:09;7.60;99.90
17178;DHT22;8704;52.006;4.374;2022-11-23T07:27:42;7.50;99.90
17178;DHT22;8704;52.006;4.374;2022-11-23T07:30:11;7.50;99.90
17178;DHT22;8704;52.006;4.374;2022-11-23T07:32:39;7.60;99.90
17178;DHT22;8704;52.006;4.374;2022-11-23T07:35:07;7.60;99.90
17178;DHT22;8704;52.006;4.374;2022-11-23T07:37:38;7.60;99.90
17178;DHT22;8704;52.006;4.374;2022-11-23T07:40:07;7.60;99.90
17178;DHT22;8704;52.006;4.374;2022-11-23T07:42:35;7.70;99.90
17178;DHT22;8704;52.006;4.374;2022-11-23T07:45:11;7.70;99.90
17178;DHT22;8704;52.006;4.374;2022-11-23T07:47:39;7.90;99.90
17178;DHT22;8704;52.006;4.374;2022-11-23T07:50:09;7.70;99.90
17178;DHT22;8704;52.006;4.374;2022-11-23T07:52:39;7.70;99.90
17178;DHT22;8704;52.006;4.374;2022-11-23T07:55:08;7.80;99.90
17178;DHT22;8704;52.006;4.374;2022-11-23T07:57:36;7.80;99.90
17178;DHT22;8704;52.006;4.374;2022-11-23T08:00:05;7.70;99.90
17178;DHT22;8704;52.006;4.374;2022-11-23T08:02:33;7.80;99.90
17178;DHT22;8704;52.006;4.374;2022-11-23T08:05:01;7.80;99.90
17178;DHT22;8704;52.006;4.374;2022-11-23T08:07:29;7.90;99.90
17178;DHT22;8704;52.006;4.374;2022-11-23T08:09:58;7.80;99.90
17178;DHT22;8704;52.006;4.374;2022-11-23T08:12:26;7.90;99.90
17178;DHT22;8704;52.006;4.374;2022-11-23T08:14:54;7.90;99.90
17178;DHT22;8704;52.006;4.374;2022-11-23T08:17:22;7.90;99.90
17178;DHT22;8704;52.006;4.374;2022-11-23T08:19:50;7.90;99.90
17178;DHT22;8704;52.006;4.374;2022-11-23T08:22:18;7.90;99.90
17178;DHT22;8704;52.006;4.374;2022-11-23T08:24:46;8.00;99.90
17178;DHT22;8704;52.006;4.374;2022-11-23T08:27:15;7.90;99.90
17178;DHT22;8704;52.006;4.374;2022-11-23T08:29:43;7.90;99.90
17178;DHT22;8704;52.006;4.374;2022-11-23T08:32:11;7.90;99.90
17178;DHT22;8704;52.006;4.374;2022-11-23T08:34:41;8.00;99.90
17178;DHT22;8704;52.006;4.374;2022-11-23T08:37:09;7.90;99.90
17178;DHT22;8704;52.006;4.374;2022-11-23T08:39:37;7.90;99.90
17178;DHT22;8704;52.006;4.374;2022-11-23T08:42:05;7.90;99.90
17178;DHT22;8704;52.006;4.374;2022-11-23T08:44:34;8.00;99.90
17178;DHT22;8704;52.006;4.374;2022-11-23T08:47:02;7.90;99.90
17178;DHT22;8704;52.006;4.374;2022-11-23T08:49:30;8.00;99.90
17178;DHT22;8704;52.006;4.374;2022-11-23T08:51:58;8.00;99.90
17178;DHT22;8704;52.006;4.374;2022-11-23T08:54:26;8.00;99.90
17178;DHT22;8704;52.006;4.374;2022-11-23T08:56:54;8.10;99.90
17178;DHT22;8704;52.006;4.374;2022-11-23T08:59:22;8.00;99.90
17178;DHT22;8704;52.006;4.374;2022-11-23T09:01:51;8.10;99.90
17178;DHT22;8704;52.006;4.374;2022-11-23T09:04:19;8.10;99.90
17178;DHT22;8704;52.006;4.374;2022-11-23T09:06:47;8.10;99.90
17178;DHT22;8704;52.006;4.374;2022-11-23T09:09:15;8.10;99.90
17178;DHT22;8704;52.006;4.374;2022-11-23T09:11:43;8.10;99.90
17178;DHT22;8704;52.006;4.374;2022-11-23T09:14:11;8.00;99.90
17178;DHT22;8704;52.006;4.374;2022-11-23T09:16:39;8.10;99.90
17178;DHT22;8704;52.006;4.374;2022-11-23T09:19:11;8.10;99.90
17178;DHT22;8704;52.006;4.374;2022-11-23T09:21:39;8.10;99.90
17178;DHT22;8704;52.006;4.374;2022-11-23T09:24:09;8.10;99.90
17178;DHT22;8704;52.006;4.374;2022-11-23T09:26:37;8.10;99.90
17178;DHT22;8704;52.006;4.374;2022-11-23T09:29:06;8.10;99.90
17178;DHT22;8704;52.006;4.374;2022-11-23T09:31:34;8.10;99.90
17178;DHT22;8704;52.006;4.374;2022-11-23T09:34:02;8.10;99.90
17178;DHT22;8704;52.006;4.374;2022-11-23T09:36:32;8.10;99.90
17178;DHT22;8704;52.006;4.374;2022-11-23T09:39:00;8.20;99.90
17178;DHT22;8704;52.006;4.374;2022-11-23T09:44:55;8.10;99.90
17178;DHT22;8704;52.006;4.374;2022-11-23T09:47:39;8.20;99.90
17178;DHT22;8704;52.006;4.374;2022-11-23T09:50:18;8.10;99.90
17178;DHT22;8704;52.006;4.374;2022-11-23T09:52:50;8.20;99.90
17178;DHT22;8704;52.006;4.374;2022-11-23T09:55:26;8.20;99.90
17178;DHT22;8704;52.006;4.374;2022-11-23T09:57:59;8.20;99.90
17178;DHT22;8704;52.006;4.374;2022-11-23T10:00:31;8.20;99.90
17178;DHT22;8704;52.006;4.374;2022-11-23T10:03:02;8.30;99.90
17178;DHT22;8704;52.006;4.374;2022-11-23T10:05:34;8.30;99.90
17178;DHT22;8704;52.006;4.374;2022-11-23T10:08:13;8.30;99.90
17178;DHT22;8704;52.006;4.374;2022-11-23T10:10:47;8.30;99.90
17178;DHT22;8704;52.006;4.374;2022-11-23T10:13:27;8.30;99.90
17178;DHT22;8704;52.006;4.374;2022-11-23T10:16:10;9.20;99.90
17178;DHT22;8704;52.006;4.374;2022-11-23T10:18:49;8.30;99.90
17178;DHT22;8704;52.006;4.374;2022-11-23T10:21:28;8.30;99.90
17178;DHT22;8704;52.006;4.374;2022-11-23T10:24:09;8.30;99.90
17178;DHT22;8704;52.006;4.374;2022-11-23T10:26:41;8.30;99.90
17178;DHT22;8704;52.006;4.374;2022-11-23T10:29:13;8.30;99.90
17178;DHT22;8704;52.006;4.374;2022-11-23T10:31:45;8.30;99.90
17178;DHT22;8704;52.006;4.374;2022-11-23T10:34:27;8.30;99.90
17178;DHT22;8704;52.006;4.374;2022-11-23T10:36:57;8.30;99.90
17178;DHT22;8704;52.006;4.374;2022-11-23T10:39:27;8.20;99.90
17178;DHT22;8704;52.006;4.374;2022-11-23T10:41:59;8.30;99.90
17178;DHT22;8704;52.006;4.374;2022-11-23T10:44:30;8.20;99.90
17178;DHT22;8704;52.006;4.374;2022-11-23T10:46:59;8.20;99.90
17178;DHT22;8704;52.006;4.374;2022-11-23T10:49:29;8.20;99.90
17178;DHT22;8704;52.006;4.374;2022-11-23T10:52:00;8.20;99.90
17178;DHT22;8704;52.006;4.374;2022-11-23T10:54:32;8.20;99.90
17178;DHT22;8704;52.006;4.374;2022-11-23T10:57:19;8.30;99.90
17178;DHT22;8704;52.006;4.374;2022-11-23T10:59:56;8.30;99.90
17178;DHT22;8704;52.006;4.374;2022-11-23T11:02:25;8.30;99.90
17178;DHT22;8704;52.006;4.374;2022-11-23T11:05:19;8.30;99.90
17178;DHT22;8704;52.006;4.374;2022-11-23T11:08:13;8.30;99.90
17178;DHT22;8704;52.006;4.374;2022-11-23T11:10:45;8.30;99.90
17178;DHT22;8704;52.006;4.374;2022-11-23T11:13:21;8.40;99.90
17178;DHT22;8704;52.006;4.374;2022-11-23T11:15:54;8.40;99.90
17178;DHT22;8704;52.006;4.374;2022-11-23T11:18:25;8.40;99.90
17178;DHT22;8704;52.006;4.374;2022-11-23T11:20:58;8.40;99.90
17178;DHT22;8704;52.006;4.374;2022-11-23T11:23:28;8.40;99.90
17178;DHT22;8704;52.006;4.374;2022-11-23T11:26:08;8.40;99.90
17178;DHT22;8704;52.006;4.374;2022-11-23T11:28:40;8.40;99.90
17178;DHT22;8704;52.006;4.374;2022-11-23T11:31:24;8.40;99.90
17178;DHT22;8704;52.006;4.374;2022-11-23T11:34:01;8.40;99.90
17178;DHT22;8704;52.006;4.374;2022-11-23T11:36:37;8.50;99.90
17178;DHT22;8704;52.006;4.374;2022-11-23T11:39:11;8.40;99.90
17178;DHT22;8704;52.006;4.374;2022-11-23T11:41:48;8.50;99.90
17178;DHT22;8704;52.006;4.374;2022-11-23T11:44:20;8.50;99.90
17178;DHT22;8704;52.006;4.374;2022-11-23T11:46:53;8.70;99.90
17178;DHT22;8704;52.006;4.374;2022-11-23T11:49:26;8.60;99.90
17178;DHT22;8704;52.006;4.374;2022-11-23T11:51:58;8.30;99.90
17178;DHT22;8704;52.006;4.374;2022-11-23T11:54:34;8.70;99.90
17178;DHT22;8704;52.006;4.374;2022-11-23T11:57:11;8.70;99.90
17178;DHT22;8704;52.006;4.374;2022-11-23T11:59:44;8.70;99.90
17178;DHT22;8704;52.006;4.374;2022-11-23T12:02:21;8.70;99.90
17178;DHT22;8704;52.006;4.374;2022-11-23T12:04:56;8.80;99.90
17178;DHT22;8704;52.006;4.374;2022-11-23T12:07:29;8.80;99.90
17178;DHT22;8704;52.006;4.374;2022-11-23T12:10:05;8.90;99.90
17178;DHT22;8704;52.006;4.374;2022-11-23T12:12:38;8.90;99.90
17178;DHT22;8704;52.006;4.374;2022-11-23T12:15:15;9.00;99.90
17178;DHT22;8704;52.006;4.374;2022-11-23T12:21:18;9.00;99.90
17178;DHT22;8704;52.006;4.374;2022-11-23T12:23:55;9.00;99.90
17178;DHT22;8704;52.006;4.374;2022-11-23T12:26:30;9.10;99.90
17178;DHT22;8704;52.006;4.374;2022-11-23T12:29:28;9.10;99.90
17178;DHT22;8704;52.006;4.374;2022-11-23T12:32:05;9.10;99.90
17178;DHT22;8704;52.006;4.374;2022-11-23T12:34:51;9.10;99.90
17178;DHT22;8704;52.006;4.374;2022-11-23T12:37:33;9.10;99.90
17178;DHT22;8704;52.006;4.374;2022-11-23T12:40:38;9.40;99.90
17178;DHT22;8704;52.006;4.374;2022-11-23T12:43:12;9.10;99.90
17178;DHT22;8704;52.006;4.374;2022-11-23T12:46:01;9.10;99.90
17178;DHT22;8704;52.006;4.374;2022-11-23T12:48:42;9.10;99.90
17178;DHT22;8704;52.006;4.374;2022-11-23T12:51:20;9.00;99.90
17178;DHT22;8704;52.006;4.374;2022-11-23T12:53:57;8.90;99.90
17178;DHT22;8704;52.006;4.374;2022-11-23T12:56:55;8.90;99.90
17178;DHT22;8704;52.006;4.374;2022-11-23T12:59:34;8.90;99.90
17178;DHT22;8704;52.006;4.374;2022-11-23T13:02:28;8.90;99.90
17178;DHT22;8704;52.006;4.374;2022-11-23T13:05:18;8.80;99.90
17178;DHT22;8704;52.006;4.374;2022-11-23T13:08:04;8.80;99.90
17178;DHT22;8704;52.006;4.374;2022-11-23T13:10:44;8.70;99.90
17178;DHT22;8704;52.006;4.374;2022-11-23T13:13:23;8.70;99.90
17178;DHT22;8704;52.006;4.374;2022-11-23T13:19:01;8.60;99.90
17178;DHT22;8704;52.006;4.374;2022-11-23T13:21:35;8.50;99.90
17178;DHT22;8704;52.006;4.374;2022-11-23T13:24:20;8.60;99.90
17178;DHT22;8704;52.006;4.374;2022-11-23T13:30:23;8.50;99.90
17178;DHT22;8704;52.006;4.374;2022-11-23T13:33:11;8.50;99.90
17178;DHT22;8704;52.006;4.374;2022-11-23T13:35:59;8.50;99.90
17178;DHT22;8704;52.006;4.374;2022-11-23T13:38:41;8.50;99.90
17178;DHT22;8704;52.006;4.374;2022-11-23T13:44:28;8.50;99.90
17178;DHT22;8704;52.006;4.374;2022-11-23T13:47:06;8.30;99.90
17178;DHT22;8704;52.006;4.374;2022-11-23T13:49:45;8.40;99.90
17178;DHT22;8704;52.006;4.374;2022-11-23T13:52:31;8.60;99.90
17178;DHT22;8704;52.006;4.374;2022-11-23T13:55:08;8.40;99.90
17178;DHT22;8704;52.006;4.374;2022-11-23T14:00:44;8.40;99.90
17178;DHT22;8704;52.006;4.374;2022-11-23T14:03:47;8.40;99.90
17178;DHT22;8704;52.006;4.374;2022-11-23T14:09:12;8.40;99.90
17178;DHT22;8704;52.006;4.374;2022-11-23T14:11:53;8.40;99.90
17178;DHT22;8704;52.006;4.374;2022-11-23T14:14:26;8.40;99.90
17178;DHT22;8704;52.006;4.374;2022-11-23T14:17:18;8.40;99.90
17178;DHT22;8704;52.006;4.374;2022-11-23T14:20:07;8.40;99.90
17178;DHT22;8704;52.006;4.374;2022-11-23T14:22:44;8.40;99.90
17178;DHT22;8704;52.006;4.374;2022-11-23T14:25:34;8.40;99.90
17178;DHT22;8704;52.006;4.374;2022-11-23T14:28:13;8.40;99.90
17178;DHT22;8704;52.006;4.374;2022-11-23T14:30:56;8.40;99.90
17178;DHT22;8704;52.006;4.374;2022-11-23T14:33:33;8.40;99.90
17178;DHT22;8704;52.006;4.374;2022-11-23T14:36:11;8.80;99.90
17178;DHT22;8704;52.006;4.374;2022-11-23T14:38:55;8.40;99.90
17178;DHT22;8704;52.006;4.374;2022-11-23T14:41:34;8.40;99.90
17178;DHT22;8704;52.006;4.374;2022-11-23T14:44:04;8.40;99.90
17178;DHT22;8704;52.006;4.374;2022-11-23T14:46:32;8.40;99.90
17178;DHT22;8704;52.006;4.374;2022-11-23T14:49:04;8.40;99.90
17178;DHT22;8704;52.006;4.374;2022-11-23T14:51:34;8.50;99.90
17178;DHT22;8704;52.006;4.374;2022-11-23T14:54:08;8.50;99.90
17178;DHT22;8704;52.006;4.374;2022-11-23T14:56:40;9.00;99.90
17178;DHT22;8704;52.006;4.374;2022-11-23T14:59:18;8.50;99.90
17178;DHT22;8704;52.006;4.374;2022-11-23T15:01:50;8.50;99.90
17178;DHT22;8704;52.006;4.374;2022-11-23T15:04:23;8.50;99.90
17178;DHT22;8704;52.006;4.374;2022-11-23T15:06:55;8.50;99.90
17178;DHT22;8704;52.006;4.374;2022-11-23T15:09:43;8.50;99.90
17178;DHT22;8704;52.006;4.374;2022-11-23T15:12:22;8.50;99.90
17178;DHT22;8704;52.006;4.374;2022-11-23T15:14:51;8.40;99.90
17178;DHT22;8704;52.006;4.374;2022-11-23T15:17:21;8.50;99.90
17178;DHT22;8704;52.006;4.374;2022-11-23T15:19:53;8.50;99.90
17178;DHT22;8704;52.006;4.374;2022-11-23T15:22:22;8.50;99.90
17178;DHT22;8704;52.006;4.374;2022-11-23T15:24:51;8.50;99.90
17178;DHT22;8704;52.006;4.374;2022-11-23T15:27:24;8.50;99.90
17178;DHT22;8704;52.006;4.374;2022-11-23T15:29:56;8.50;99.90
17178;DHT22;8704;52.006;4.374;2022-11-23T15:32:26;8.50;99.90
17178;DHT22;8704;52.006;4.374;2022-11-23T15:35:00;8.50;99.90
17178;DHT22;8704;52.006;4.374;2022-11-23T15:37:29;8.50;99.90
17178;DHT22;8704;52.006;4.374;2022-11-23T15:39:58;8.50;99.90
17178;DHT22;8704;52.006;4.374;2022-11-23T15:42:28;8.50;99.90
17178;DHT22;8704;52.006;4.374;2022-11-23T15:44:56;8.50;99.90
17178;DHT22;8704;52.006;4.374;2022-11-23T15:47:26;8.50;99.90
17178;DHT22;8704;52.006;4.374;2022-11-23T15:49:59;8.50;99.90
17178;DHT22;8704;52.006;4.374;2022-11-23T15:52:29;8.50;99.90
17178;DHT22;8704;52.006;4.374;2022-11-23T15:55:00;8.60;99.90
17178;DHT22;8704;52.006;4.374;2022-11-23T15:57:38;8.50;99.90
17178;DHT22;8704;52.006;4.374;2022-11-23T16:00:17;8.60;99.90
17178;DHT22;8704;52.006;4.374;2022-11-23T16:02:48;8.50;99.90
17178;DHT22;8704;52.006;4.374;2022-11-23T16:05:18;8.50;99.90
17178;DHT22;8704;52.006;4.374;2022-11-23T16:07:50;8.50;99.90
17178;DHT22;8704;52.006;4.374;2022-11-23T16:10:20;8.60;99.90
17178;DHT22;8704;52.006;4.374;2022-11-23T16:12:51;8.70;99.90
17178;DHT22;8704;52.006;4.374;2022-11-23T16:15:37;8.50;99.90
17178;DHT22;8704;52.006;4.374;2022-11-23T16:18:21;8.50;99.90
17178;DHT22;8704;52.006;4.374;2022-11-23T16:20:52;8.60;99.90
17178;DHT22;8704;52.006;4.374;2022-11-23T16:23:22;8.60;99.90
17178;DHT22;8704;52.006;4.374;2022-11-23T16:25:53;8.70;99.90
17178;DHT22;8704;52.006;4.374;2022-11-23T16:28:26;8.50;99.90
17178;DHT22;8704;52.006;4.374;2022-11-23T16:30:55;8.50;99.90
17178;DHT22;8704;52.006;4.374;2022-11-23T16:33:24;8.50;99.90
17178;DHT22;8704;52.006;4.374;2022-11-23T16:35:52;8.50;99.90
17178;DHT22;8704;52.006;4.374;2022-11-23T16:38:21;8.50;99.90
17178;DHT22;8704;52.006;4.374;2022-11-23T16:40:49;8.30;99.90
17178;DHT22;8704;52.006;4.374;2022-11-23T16:43:17;8.50;99.90
17178;DHT22;8704;52.006;4.374;2022-11-23T16:45:48;8.40;99.90
17178;DHT22;8704;52.006;4.374;2022-11-23T16:48:37;8.40;99.90
17178;DHT22;8704;52.006;4.374;2022-11-23T16:51:07;8.50;99.90
17178;DHT22;8704;52.006;4.374;2022-11-23T16:53:44;8.40;99.90